Avilla, MO

4:40 PM CST on November 23, 2014 (GMT -0600)
the Wood | Change Station
CLOSE
Current Station
Personal Weather Station
Location: Reeds, MO
Elevation: 1086 ft
Nearby Weather Stations

Elev 1086 ft 37.17 °N, 94.17 °W | Updated 19 seconds ago

Overcast
Overcast
60.4 °F
Feels Like 60.4 °F
N
2.0
Wind Variable Wind from North
Gusts 2.0 mph

Today
High -- | Low -- °F
--% Chance of Precip.
Yesterday
High -- | Low -- °F
Precip. -- in
7:03 AM 5:01 PM
New Moon, 2% visible
Pressure 29.31 in
Visibility 4.0 miles
Clouds Mostly Cloudy 2500 ft
Mostly Cloudy 4300 ft
Overcast 6000 ft
Dew Point 56 °F
Humidity 84%
Rainfall 0.00 in
Snow Depth Not available.
UV 0 out of 12
Pollen .40 out of 12
Air Quality Not available.
Flu Activity Not available.
SPECI KJLN 232222Z 33010KT 4SM TSRA BR BKN025 BKN043 OVC060 14/13 A2931 RMK AO2 LTG DSNT SE AND S RAB10 TSB04E19B20 TS OHD MOV E P0004 T01440133

More Conditions Fewer Conditions

Pressure 29.31 in
Visibility 4.0 miles
Clouds Mostly Cloudy 2500 ft
Mostly Cloudy 4300 ft
Overcast 6000 ft
Dew Point 56 °F
Humidity 84%
Rainfall 0.00 in
Snow Depth Not available.
UV 0 out of 12
Pollen .40 out of 12
Air Quality Not available.
Flu Activity Not available.
SPECI KJLN 232222Z 33010KT 4SM TSRA BR BKN025 BKN043 OVC060 14/13 A2931 RMK AO2 LTG DSNT SE AND S RAB10 TSB04E19B20 TS OHD MOV E P0004 T01440133

More Conditions Fewer Conditions

10-Day Weather Forecast

Almanac

Astronomy

Nov. 23, 2014 Rise Set
Actual Time
Civil Twilight
Nautical Twilight
Astronomical Twilight
Moon
Length of Visible Light
Length of Day
Tomorrow will be .
, % of the Moon is Illuminated

Today's Extremes

State Highs State Lows

Community

WunderPhotos

Upload Photos

1,773,187 photos uploaded!

WunderBlogs® & News

Nearby

Air Quality

  Air Quality AQ Index Pollutant
Not available.

Snow Depth

Station Depth Elevation

Earthquake Activity

City Distance Mag. Time & Date
Minimum magnitude displayed is 2.5.

Coastal Water Temperatures

Place Temperature

Nearby Weather Stations